RKSI METAR and TAF | Updated Today

RKSI METAR

Incheon International Airport

Observation time: 12 min. ago

RKSI 032300Z 15002KT CAVOK 01/M05 Q1025 NOSIG

Need help? Read our tutorial on how to read METARs or read the parsed version below.

Incheon International Airport (RKSI) METAR

  • Weather conditions on Fri, 03 Dec 2021 23:00:00 +0000 (12 min. ago):
  • Present conditions: Dry
  • Clouds: Clear skies
  • Visibility: Greater than 10 km
  • Wind: 150 degrees at 2 knots
  • Temperature: 1 celsius
  • Dew point: -5 celsius
  • Pressure: 1025 millibars
  • Remarks: None


Useful to know...

RKSI TAF

Incheon International Airport

TAF RKSI 031700Z 0318/0424 06006KT CAVOK TNM02/0322Z TX07/0406Z TNM01/0422Z BECMG 0400/0401 33010KT BECMG 0413/0414 05006KT BECMG 0422/0423 14006KT
Observation time: 6:12 hr. ago
Need help? Read our tutorial on how to read TAFs or read the parsed version below.

Parsed version of TAF for Incheon International Airport (RKSI)

  • From 03 December at 18:00 UTC, to day 04 of the month at 24:00 UTC
  • Visibility: Greater than 10 km
  • Wind: 60 degrees at 6
  • Expected to arise soon, from 04 December at 00:00 UTC, to day 04 of the month at 01:00 UTC
  • Wind: 330 degrees at 10
  • Expected to arise soon, from 04 December at 13:00 UTC, to day 04 of the month at 14:00 UTC
  • Wind: 50 degrees at 6
  • Expected to arise soon, from 04 December at 22:00 UTC, to day 04 of the month at 23:00 UTC
  • Wind: 140 degrees at 6